createdAt,value
2018-12-15T00:01:02.321Z,95521.95
2018-12-15T00:03:38.096Z,95528.14
2018-12-15T00:06:13.849Z,95521.62
2018-12-15T00:08:49.734Z,95524.18
2018-12-15T00:11:25.416Z,95518.94
2018-12-15T00:14:01.340Z,95529.30
2018-12-15T00:16:37.035Z,95529.88
2018-12-15T00:19:12.836Z,95526.16
2018-12-15T00:21:48.503Z,95524.05
2018-12-15T00:24:24.191Z,95529.75
2018-12-15T00:29:44.233Z,95532.77
2018-12-15T00:32:19.931Z,95537.55
2018-12-15T00:34:55.590Z,95536.27
2018-12-15T00:37:31.550Z,95544.52
2018-12-15T00:40:08.338Z,95537.42
2018-12-15T00:42:44.151Z,95540.93
2018-12-15T00:45:19.928Z,95544.98
2018-12-15T00:47:55.725Z,95549.64
2018-12-15T00:50:31.542Z,95552.19
2018-12-15T00:53:07.269Z,95557.89
2018-12-15T00:55:42.912Z,95558.37
2018-12-15T00:58:18.996Z,95567.55
2018-12-15T01:00:54.669Z,95579.05
2018-12-15T01:03:30.308Z,95584.65
2018-12-15T01:06:06.179Z,95589.77
2018-12-15T01:08:42.034Z,95590.22
2018-12-15T01:11:17.844Z,95595.58
2018-12-15T01:13:53.629Z,95600.00
2018-12-15T01:16:30.252Z,95598.94
2018-12-15T01:19:05.941Z,95601.63
2018-12-15T01:21:41.611Z,95609.29
2018-12-15T01:24:17.289Z,95612.08
2018-12-15T01:26:53.075Z,95605.10
2018-12-15T01:29:28.700Z,95613.59
2018-12-15T01:32:04.684Z,95615.09
2018-12-15T01:34:40.470Z,95618.25
2018-12-15T01:37:16.184Z,95627.52
2018-12-15T01:39:51.869Z,95629.75
2018-12-15T01:42:27.904Z,95638.92
2018-12-15T01:45:03.862Z,95631.16
2018-12-15T01:47:40.254Z,95630.88
2018-12-15T01:50:16.100Z,95637.39
2018-12-15T01:52:51.711Z,95636.13
2018-12-15T01:55:28.050Z,95640.44
2018-12-15T01:58:03.911Z,95646.50
2018-12-15T02:00:39.765Z,95651.02
2018-12-15T02:03:15.679Z,95657.91
2018-12-15T02:05:51.461Z,95656.02
2018-12-15T02:08:27.243Z,95655.23
2018-12-15T02:11:03.098Z,95661.63
2018-12-15T02:13:38.891Z,95662.20
2018-12-15T02:16:16.434Z,95663.95
2018-12-15T02:18:53.313Z,95656.02
2018-12-15T02:21:29.014Z,95648.02
2018-12-15T02:24:04.739Z,95648.35
2018-12-15T02:26:40.393Z,95642.44
2018-12-15T02:29:16.788Z,95650.82
2018-12-15T02:31:52.411Z,95649.98
2018-12-15T02:34:28.188Z,95646.72
2018-12-15T02:37:03.913Z,95650.23
2018-12-15T02:39:39.644Z,95649.86
2018-12-15T02:42:16.311Z,95650.44
2018-12-15T02:44:52.039Z,95650.31
2018-12-15T02:47:27.814Z,95644.41
2018-12-15T02:50:03.509Z,95650.31
2018-12-15T02:52:39.605Z,95643.58
2018-12-15T02:55:15.387Z,95645.77
2018-12-15T02:57:51.028Z,95640.80
2018-12-15T03:00:26.921Z,95649.37
2018-12-15T03:03:02.653Z,95642.19
2018-12-15T03:05:38.526Z,95640.33
2018-12-15T03:08:14.312Z,95638.79
2018-12-15T03:10:49.991Z,95642.19
2018-12-15T03:13:26.734Z,95637.51
2018-12-15T03:16:02.420Z,95637.62
2018-12-15T03:18:38.138Z,95629.48
2018-12-15T03:21:13.779Z,95627.95
2018-12-15T03:23:49.514Z,95625.90
2018-12-15T03:26:25.167Z,95630.41
2018-12-15T03:29:00.937Z,95624.98
2018-12-15T03:31:36.569Z,95626.81
2018-12-15T03:34:13.383Z,95620.67
2018-12-15T03:36:49.351Z,95617.86
2018-12-15T03:39:25.246Z,95617.42
2018-12-15T03:42:01.368Z,95618.70
2018-12-15T03:44:37.701Z,95617.76
2018-12-15T03:47:13.476Z,95613.80
2018-12-15T03:49:49.119Z,95607.98
2018-12-15T03:52:24.934Z,95607.17
2018-12-15T03:55:00.591Z,95605.05
2018-12-15T03:57:36.316Z,95617.59
2018-12-15T04:00:12.243Z,95623.19
2018-12-15T04:02:48.007Z,95616.81
2018-12-15T04:05:23.741Z,95621.91
2018-12-15T04:07:59.531Z,95620.06
2018-12-15T04:10:35.718Z,95616.20
2018-12-15T04:13:11.396Z,95618.66
2018-12-15T04:15:47.098Z,95616.45
2018-12-15T04:18:22.746Z,95623.66
2018-12-15T04:20:58.454Z,95622.14
2018-12-15T04:23:34.069Z,95625.61
2018-12-15T04:26:09.881Z,95632.59
2018-12-15T04:28:45.726Z,95629.10
2018-12-15T04:31:21.515Z,95628.88
2018-12-15T04:33:57.242Z,95623.52
2018-12-15T04:36:32.892Z,95619.20
2018-12-15T04:39:08.544Z,95620.59
2018-12-15T04:41:44.262Z,95621.55
2018-12-15T04:44:19.988Z,95615.02
2018-12-15T04:46:56.197Z,95617.72
2018-12-15T04:49:31.933Z,95615.61
2018-12-15T04:52:08.702Z,95621.30
2018-12-15T04:54:44.397Z,95610.59
2018-12-15T04:57:20.038Z,95614.20
2018-12-15T04:59:55.753Z,95611.42
2018-12-15T05:02:32.453Z,95606.08
2018-12-15T05:05:08.590Z,95604.45
2018-12-15T05:07:44.361Z,95600.51
2018-12-15T05:10:20.249Z,95603.53
2018-12-15T05:12:55.969Z,95602.81
2018-12-15T05:15:31.717Z,95612.60
2018-12-15T05:18:07.578Z,95603.64
2018-12-15T05:20:44.296Z,95607.02
2018-12-15T05:23:19.892Z,95606.21
2018-12-15T05:25:55.581Z,95603.18
2018-12-15T05:28:31.231Z,95608.04
2018-12-15T05:31:07.070Z,95609.47
2018-12-15T05:33:42.768Z,95610.50
2018-12-15T05:36:18.586Z,95613.53
2018-12-15T05:38:54.493Z,95614.92
2018-12-15T05:41:32.124Z,95618.17
2018-12-15T05:44:07.833Z,95614.45
2018-12-15T05:46:43.500Z,95614.69
2018-12-15T05:49:19.192Z,95615.04
2018-12-15T05:51:54.941Z,95627.39
2018-12-15T05:54:30.630Z,95630.62
2018-12-15T05:57:06.644Z,95625.19
2018-12-15T05:59:42.364Z,95621.77
2018-12-15T06:02:19.459Z,95629.92
2018-12-15T06:04:56.569Z,95624.13
2018-12-15T06:07:32.202Z,95615.98
2018-12-15T06:10:08.205Z,95616.24
2018-12-15T06:12:44.032Z,95623.42
2018-12-15T06:15:19.771Z,95619.72
2018-12-15T06:17:55.574Z,95615.38
2018-12-15T06:20:31.329Z,95613.21
2018-12-15T06:23:07.005Z,95612.63
2018-12-15T06:25:42.763Z,95599.98
2018-12-15T06:28:18.473Z,95591.47
2018-12-15T06:30:54.302Z,95597.06
2018-12-15T06:33:29.973Z,95604.60
2018-12-15T06:36:05.854Z,95601.25
2018-12-15T06:38:41.854Z,95597.28
2018-12-15T06:41:17.648Z,95602.30
2018-12-15T06:43:53.802Z,95598.56
2018-12-15T06:46:29.628Z,95593.58
2018-12-15T06:49:05.312Z,95593.23
2018-12-15T06:51:41.128Z,95597.42
2018-12-15T06:54:16.993Z,95589.30
2018-12-15T06:56:52.624Z,95586.13
2018-12-15T06:59:28.302Z,95589.05
2018-12-15T07:02:04.125Z,95584.97
2018-12-15T07:04:39.792Z,95594.86
2018-12-15T07:07:15.569Z,95587.20
2018-12-15T07:09:51.244Z,95591.50
2018-12-15T07:12:27.233Z,95583.58
2018-12-15T07:15:02.928Z,95589.52
2018-12-15T07:17:38.607Z,95588.80
2018-12-15T07:20:14.706Z,95589.41
2018-12-15T07:22:50.304Z,95595.46
2018-12-15T07:25:26.509Z,95598.38
2018-12-15T07:28:02.213Z,95602.30
2018-12-15T07:30:39.456Z,95596.50
2018-12-15T07:33:15.205Z,95602.20
2018-12-15T07:35:51.061Z,95601.39
2018-12-15T07:38:26.831Z,95607.80
2018-12-15T07:41:02.525Z,95604.77
2018-12-15T07:43:38.199Z,95606.27
2018-12-15T07:46:14.119Z,95599.41
2018-12-15T07:48:51.555Z,95610.22
2018-12-15T07:51:27.840Z,95620.94
2018-12-15T07:54:03.760Z,95619.65
2018-12-15T07:56:39.533Z,95630.00
2018-12-15T07:59:15.411Z,95633.37
2018-12-15T08:01:51.144Z,95636.98
2018-12-15T08:04:26.872Z,95636.86
2018-12-15T08:07:02.661Z,95641.98
2018-12-15T08:09:38.660Z,95643.28
2018-12-15T08:12:19.778Z,95641.53
2018-12-15T08:14:55.665Z,95641.63
2018-12-15T08:17:31.496Z,95642.33
2018-12-15T08:20:11.016Z,95643.61
2018-12-15T08:22:48.639Z,95658.12
2018-12-15T08:25:24.374Z,95649.06
2018-12-15T08:28:00.435Z,95647.29
2018-12-15T08:30:36.187Z,95644.84
2018-12-15T08:33:12.142Z,95647.16
2018-12-15T08:35:47.868Z,95639.85
2018-12-15T08:38:23.618Z,95641.25
2018-12-15T08:40:59.378Z,95635.22
2018-12-15T08:43:35.105Z,95639.86
2018-12-15T08:46:15.393Z,95645.80
2018-12-15T08:48:51.101Z,95646.95
2018-12-15T08:51:27.213Z,95639.78
2018-12-15T08:54:02.991Z,95646.06
2018-12-15T08:56:38.875Z,95636.86
2018-12-15T08:59:14.944Z,95644.03
2018-12-15T09:01:50.559Z,95646.91
2018-12-15T09:04:26.678Z,95653.88
2018-12-15T09:07:02.297Z,95655.50
2018-12-15T09:09:38.020Z,95661.83
2018-12-15T09:12:13.926Z,95660.34
2018-12-15T09:14:49.956Z,95662.66
2018-12-15T09:17:25.863Z,95668.27
2018-12-15T09:20:01.726Z,95664.72
2018-12-15T09:22:37.922Z,95664.97
2018-12-15T09:25:14.866Z,95663.61
2018-12-15T09:27:50.891Z,95666.52
2018-12-15T09:30:26.817Z,95663.61
2018-12-15T09:33:02.564Z,95669.57
2018-12-15T09:35:38.429Z,95669.55
2018-12-15T09:38:14.404Z,95664.83
2018-12-15T09:40:50.088Z,95658.98
2018-12-15T09:43:26.393Z,95652.80
2018-12-15T09:46:02.161Z,95657.29
2018-12-15T09:48:37.957Z,95662.48
2018-12-15T09:51:13.823Z,95656.77
2018-12-15T09:53:50.839Z,95655.18
2018-12-15T09:56:26.565Z,95656.87
2018-12-15T09:59:02.540Z,95648.66
2018-12-15T10:01:39.308Z,95652.07
2018-12-15T10:04:15.292Z,95646.55
2018-12-15T10:06:51.144Z,95648.05
2018-12-15T10:09:27.031Z,95638.92
2018-12-15T10:12:02.824Z,95631.91
2018-12-15T10:14:38.613Z,95626.97
2018-12-15T10:17:14.387Z,95629.47
2018-12-15T10:19:50.060Z,95613.34
2018-12-15T10:25:09.631Z,95608.80
2018-12-15T10:27:45.394Z,95601.34
2018-12-15T10:30:26.516Z,95594.45
2018-12-15T10:33:02.305Z,95589.34
2018-12-15T10:35:38.053Z,95583.41
2018-12-15T10:38:14.037Z,95581.68
2018-12-15T10:40:49.800Z,95573.25
2018-12-15T10:43:25.548Z,95570.17
2018-12-15T10:46:01.308Z,95567.05
2018-12-15T10:48:37.223Z,95555.80
2018-12-15T10:51:12.960Z,95556.04
2018-12-15T10:53:48.818Z,95553.86
2018-12-15T10:56:24.546Z,95551.05
2018-12-15T10:59:00.262Z,95548.25
2018-12-15T11:01:35.946Z,95542.20
2018-12-15T11:04:11.614Z,95537.81
2018-12-15T11:06:47.368Z,95532.49
2018-12-15T11:09:23.355Z,95534.28
2018-12-15T11:11:59.011Z,95539.12
2018-12-15T11:14:34.821Z,95534.98
2018-12-15T11:17:10.428Z,95537.41
2018-12-15T11:19:46.052Z,95540.41
2018-12-15T11:22:22.015Z,95539.64
2018-12-15T11:24:58.449Z,95536.80
2018-12-15T11:27:34.072Z,95532.91
2018-12-15T11:30:10.661Z,95529.68
2018-12-15T11:32:46.353Z,95516.84
2018-12-15T11:35:22.038Z,95517.73
2018-12-15T11:37:57.765Z,95513.28
2018-12-15T11:40:33.397Z,95509.10
2018-12-15T11:43:09.159Z,95516.22
2018-12-15T11:45:44.839Z,95512.64
2018-12-15T11:48:20.563Z,95510.86
2018-12-15T11:50:56.199Z,95509.45
2018-12-15T11:53:31.983Z,95516.89
2018-12-15T11:56:07.789Z,95511.67
2018-12-15T11:58:43.613Z,95511.17
2018-12-15T12:01:19.319Z,95507.28
2018-12-15T12:03:55.017Z,95517.69
2018-12-15T12:06:30.774Z,95516.28
2018-12-15T12:09:08.063Z,95524.17
2018-12-15T12:11:43.806Z,95525.20
2018-12-15T12:14:19.386Z,95520.51
2018-12-15T12:16:55.137Z,95517.45
2018-12-15T12:19:30.866Z,95528.14
2018-12-15T12:22:06.567Z,95516.59
2018-12-15T12:24:42.259Z,95511.08
2018-12-15T12:27:17.888Z,95509.67
2018-12-15T12:29:53.534Z,95514.00
2018-12-15T12:32:29.254Z,95513.15
2018-12-15T12:35:05.720Z,95504.02
2018-12-15T12:37:41.432Z,95504.20
2018-12-15T12:40:17.126Z,95503.09
2018-12-15T12:42:52.775Z,95501.09
2018-12-15T12:45:28.413Z,95502.41
2018-12-15T12:48:04.691Z,95508.93
2018-12-15T12:50:40.554Z,95511.21
2018-12-15T12:53:16.204Z,95499.59
2018-12-15T12:55:51.841Z,95504.91
2018-12-15T12:58:27.682Z,95492.52
2018-12-15T13:01:03.326Z,95496.45
2018-12-15T13:03:39.277Z,95501.23
2018-12-15T13:06:15.060Z,95492.42
2018-12-15T13:08:50.656Z,95498.97
2018-12-15T13:11:26.426Z,95490.11
2018-12-15T13:14:02.234Z,95488.74
2018-12-15T13:16:37.918Z,95481.14
2018-12-15T13:19:13.568Z,95482.14
2018-12-15T13:21:49.272Z,95488.17
2018-12-15T13:24:25.004Z,95480.20
2018-12-15T13:29:42.207Z,95476.60
2018-12-15T13:32:17.931Z,95476.81
2018-12-15T13:34:53.706Z,95480.44
2018-12-15T13:37:29.620Z,95472.19
2018-12-15T13:40:06.102Z,95479.59
2018-12-15T13:42:41.755Z,95477.40
2018-12-15T13:45:17.549Z,95478.20
2018-12-15T13:47:53.148Z,95472.68
2018-12-15T13:50:28.987Z,95476.86
2018-12-15T13:53:04.691Z,95466.50
2018-12-15T13:55:41.120Z,95474.77
2018-12-15T13:58:16.881Z,95482.47
2018-12-15T14:00:52.708Z,95481.45
2018-12-15T14:03:28.263Z,95479.39
2018-12-15T14:06:04.151Z,95477.69
2018-12-15T14:08:40.376Z,95486.72
2018-12-15T14:11:16.071Z,95476.64
2018-12-15T14:13:51.882Z,95484.80
2018-12-15T14:16:27.784Z,95470.31
2018-12-15T14:19:04.534Z,95470.53
2018-12-15T14:21:40.344Z,95469.16
2018-12-15T14:24:16.009Z,95457.66
2018-12-15T14:26:51.827Z,95463.95
2018-12-15T14:32:10.084Z,95458.41
2018-12-15T14:34:45.841Z,95452.70
2018-12-15T14:37:23.443Z,95449.41
2018-12-15T14:39:59.164Z,95452.75
2018-12-15T14:42:35.009Z,95447.59
2018-12-15T14:45:11.085Z,95452.63
2018-12-15T14:47:46.767Z,95450.84
2018-12-15T14:50:23.525Z,95444.59
2018-12-15T14:52:59.984Z,95438.66
2018-12-15T14:55:36.724Z,95446.73
2018-12-15T14:58:12.552Z,95441.59
2018-12-15T15:00:48.213Z,95442.63
2018-12-15T15:03:24.131Z,95439.08
2018-12-15T15:05:59.889Z,95435.49
2018-12-15T15:08:35.522Z,95433.52
2018-12-15T15:11:11.147Z,95433.61
2018-12-15T15:13:46.891Z,95426.43
2018-12-15T15:19:07.161Z,95425.47
2018-12-15T15:21:43.135Z,95414.86
2018-12-15T15:24:18.892Z,95415.81
2018-12-15T15:26:54.641Z,95417.48
2018-12-15T15:29:30.505Z,95416.66
2018-12-15T15:32:06.120Z,95419.83
2018-12-15T15:34:41.903Z,95421.69
2018-12-15T15:37:17.686Z,95425.52
2018-12-15T15:39:53.425Z,95423.78
2018-12-15T15:42:29.161Z,95417.51
2018-12-15T15:45:05.433Z,95426.34
2018-12-15T15:47:41.092Z,95427.73
2018-12-15T15:50:16.856Z,95428.67
2018-12-15T15:52:52.604Z,95423.19
2018-12-15T15:55:28.223Z,95433.03
2018-12-15T15:58:04.093Z,95431.95
2018-12-15T16:00:39.842Z,95430.44
2018-12-15T16:03:15.524Z,95435.80
2018-12-15T16:05:51.471Z,95425.00
2018-12-15T16:08:27.331Z,95434.38
2018-12-15T16:11:03.682Z,95428.17
2018-12-15T16:13:39.548Z,95422.56
2018-12-15T16:16:31.918Z,95423.27
2018-12-15T16:19:07.640Z,95422.67
2018-12-15T16:21:43.685Z,95425.74
2018-12-15T16:24:19.405Z,95415.63
2018-12-15T16:26:55.303Z,95412.64
2018-12-15T16:29:31.211Z,95408.33
2018-12-15T16:32:07.196Z,95405.30
2018-12-15T16:34:43.064Z,95399.11
2018-12-15T16:37:18.804Z,95400.11
2018-12-15T16:39:54.613Z,95405.58
2018-12-15T16:42:30.484Z,95396.69
2018-12-15T16:45:09.566Z,95397.51
2018-12-15T16:47:45.384Z,95394.31
2018-12-15T16:50:21.004Z,95399.30
2018-12-15T16:52:57.010Z,95403.33
2018-12-15T16:55:32.801Z,95390.39
2018-12-15T16:58:08.707Z,95384.63
2018-12-15T17:00:44.344Z,95391.11
2018-12-15T17:03:20.360Z,95388.06
2018-12-15T17:05:56.116Z,95379.80
2018-12-15T17:08:31.827Z,95387.72
2018-12-15T17:11:07.609Z,95377.59
2018-12-15T17:13:43.433Z,95376.98
2018-12-15T17:16:19.852Z,95383.70
2018-12-15T17:18:55.596Z,95368.41
2018-12-15T17:21:31.517Z,95380.81
2018-12-15T17:24:07.244Z,95374.98
2018-12-15T17:26:43.975Z,95371.62
2018-12-15T17:29:19.702Z,95360.48
2018-12-15T17:31:55.458Z,95354.47
2018-12-15T17:34:31.334Z,95347.87
2018-12-15T17:37:07.101Z,95347.99
2018-12-15T17:39:42.965Z,95341.45
2018-12-15T17:42:18.741Z,95332.99
2018-12-15T17:44:54.624Z,95328.61
2018-12-15T17:47:30.488Z,95328.20
2018-12-15T17:50:07.988Z,95323.20
2018-12-15T17:52:43.943Z,95323.83
2018-12-15T17:55:19.717Z,95320.58
2018-12-15T17:57:55.537Z,95311.06
2018-12-15T18:00:31.339Z,95311.66
2018-12-15T18:03:07.067Z,95312.78
2018-12-15T18:05:42.886Z,95308.28
2018-12-15T18:08:18.980Z,95302.70
2018-12-15T18:10:54.609Z,95298.06
2018-12-15T18:13:30.474Z,95288.77
2018-12-15T18:16:06.176Z,95284.50
2018-12-15T18:18:41.967Z,95284.42
2018-12-15T18:21:17.700Z,95270.78
2018-12-15T18:23:53.467Z,95263.81
2018-12-15T18:26:29.288Z,95272.91
2018-12-15T18:29:04.976Z,95266.45
2018-12-15T18:31:40.910Z,95266.81
2018-12-15T18:34:16.634Z,95263.48
2018-12-15T18:36:52.475Z,95255.06
2018-12-15T18:39:28.421Z,95256.95
2018-12-15T18:42:10.649Z,95260.20
2018-12-15T18:44:41.808Z,95248.12
2018-12-15T18:47:17.451Z,95252.45
2018-12-15T18:49:53.145Z,95251.98
2018-12-15T18:52:29.149Z,95247.11
2018-12-15T18:55:05.522Z,95256.38
2018-12-15T18:57:41.238Z,95247.11
2018-12-15T19:00:17.211Z,95244.21
2018-12-15T19:02:53.137Z,95241.78
2018-12-15T19:05:28.717Z,95244.77
2018-12-15T19:08:04.534Z,95252.91
2018-12-15T19:10:40.362Z,95241.66
2018-12-15T19:13:15.964Z,95243.04
2018-12-15T19:15:51.895Z,95250.20
2018-12-15T19:18:29.385Z,95239.66
2018-12-15T19:21:05.152Z,95246.05
2018-12-15T19:23:41.096Z,95233.30
2018-12-15T19:26:17.078Z,95236.75
2018-12-15T19:28:53.011Z,95239.47
2018-12-15T19:31:29.072Z,95242.02
2018-12-15T19:34:05.065Z,95243.51
2018-12-15T19:36:40.734Z,95238.28
2018-12-15T19:39:17.849Z,95229.37
2018-12-15T19:41:53.522Z,95228.91
2018-12-15T19:44:29.238Z,95235.65
2018-12-15T19:49:49.161Z,95241.44
2018-12-15T19:52:25.132Z,95241.09
2018-12-15T19:55:00.805Z,95222.77
2018-12-15T19:57:36.498Z,95228.08
2018-12-15T20:00:12.777Z,95217.75
2018-12-15T20:02:56.606Z,95221.16
2018-12-15T20:05:32.204Z,95225.09
2018-12-15T20:08:08.874Z,95224.61
2018-12-15T20:10:44.567Z,95222.30
2018-12-15T20:13:20.412Z,95217.66
2018-12-15T20:15:56.044Z,95210.80
2018-12-15T20:18:31.693Z,95216.27
2018-12-15T20:21:07.543Z,95209.19
2018-12-15T20:23:43.136Z,95204.41
2018-12-15T20:26:18.813Z,95208.23
2018-12-15T20:28:54.477Z,95205.77
2018-12-15T20:31:30.098Z,95196.25
2018-12-15T20:34:05.950Z,95198.69
2018-12-15T20:36:42.658Z,95192.42
2018-12-15T20:39:18.298Z,95194.39
2018-12-15T20:41:54.180Z,95191.34
2018-12-15T20:44:31.775Z,95177.86
2018-12-15T20:47:07.401Z,95171.66
2018-12-15T20:49:43.418Z,95168.72
2018-12-15T20:52:19.386Z,95161.27
2018-12-15T20:54:55.034Z,95165.41
2018-12-15T20:57:30.929Z,95167.58
2018-12-15T21:00:08.612Z,95154.58
2018-12-15T21:02:44.325Z,95160.13
2018-12-15T21:05:20.108Z,95156.87
2018-12-15T21:07:55.801Z,95147.13
2018-12-15T21:10:38.423Z,95143.27
2018-12-15T21:13:14.160Z,95150.97
2018-12-15T21:15:52.801Z,95142.59
2018-12-15T21:18:28.636Z,95146.53
2018-12-15T21:21:04.551Z,95146.86
2018-12-15T21:23:40.305Z,95138.60
2018-12-15T21:28:58.676Z,95132.31
2018-12-15T21:31:34.512Z,95133.05
2018-12-15T21:34:10.550Z,95127.08
2018-12-15T21:36:46.245Z,95124.63
2018-12-15T21:39:22.046Z,95125.57
2018-12-15T21:41:57.628Z,95113.77
2018-12-15T21:44:33.292Z,95122.26
2018-12-15T21:47:09.004Z,95124.13
2018-12-15T21:49:44.929Z,95133.89
2018-12-15T21:52:20.580Z,95141.17
2018-12-15T21:54:56.353Z,95147.64
2018-12-15T21:57:32.179Z,95142.59
2018-12-15T22:00:08.794Z,95152.23
2018-12-15T22:02:44.406Z,95150.69
2018-12-15T22:05:20.630Z,95147.31
2018-12-15T22:07:57.198Z,95138.13
2018-12-15T22:10:33.004Z,95139.87
2018-12-15T22:13:08.736Z,95131.69
2018-12-15T22:15:44.423Z,95126.98
2018-12-15T22:18:20.340Z,95122.63
2018-12-15T22:20:56.570Z,95124.56
2018-12-15T22:23:32.297Z,95116.98
2018-12-15T22:26:08.217Z,95117.67
2018-12-15T22:28:44.048Z,95109.28
2018-12-15T22:31:19.820Z,95105.47
2018-12-15T22:33:55.495Z,95105.05
2018-12-15T22:39:14.837Z,95095.70
2018-12-15T22:41:50.565Z,95092.78
2018-12-15T22:44:26.266Z,95081.63
2018-12-15T22:49:48.307Z,95063.23
2018-12-15T22:52:24.031Z,95061.70
2018-12-15T22:54:59.705Z,95056.79
2018-12-15T22:57:35.320Z,95050.80
2018-12-15T23:00:13.696Z,95043.44
2018-12-15T23:02:49.580Z,95038.87
2018-12-15T23:05:25.879Z,95021.92
2018-12-15T23:08:01.799Z,95017.09
2018-12-15T23:10:37.920Z,95013.11
2018-12-15T23:13:13.676Z,95006.25
2018-12-15T23:15:49.309Z,95003.56
2018-12-15T23:18:25.464Z,94987.34
2018-12-15T23:21:01.132Z,94985.03
2018-12-15T23:23:36.895Z,94974.24
2018-12-15T23:26:12.892Z,94975.72
2018-12-15T23:28:48.633Z,94965.65
2018-12-15T23:31:24.348Z,94967.66
2018-12-15T23:34:00.136Z,94953.80
2018-12-15T23:36:35.839Z,94957.89
2018-12-15T23:39:11.975Z,94941.88
2018-12-15T23:41:48.055Z,94937.77
2018-12-15T23:44:23.820Z,94932.80
2018-12-15T23:46:59.494Z,94932.44
2018-12-15T23:49:36.117Z,94930.50
2018-12-15T23:52:11.884Z,94914.45
2018-12-15T23:54:47.849Z,94914.34
2018-12-15T23:57:24.200Z,94903.95
2018-12-15T23:59:59.956Z,94885.89
